createdAt,value
2022-11-21T00:00:09.377Z,8.06
2022-11-21T00:02:36.857Z,8.07
2022-11-21T00:05:04.195Z,8.02
2022-11-21T00:07:31.492Z,8.10
2022-11-21T00:09:58.976Z,8.27
2022-11-21T00:12:26.164Z,8.29
2022-11-21T00:14:53.406Z,8.12
2022-11-21T00:17:20.881Z,8.22
2022-11-21T00:19:48.090Z,8.09
2022-11-21T00:22:15.358Z,8.19
2022-11-21T00:24:42.862Z,8.03
2022-11-21T00:27:10.062Z,8.14
2022-11-21T00:29:37.319Z,8.07
2022-11-21T00:32:04.968Z,7.93
2022-11-21T00:34:32.158Z,7.86
2022-11-21T00:36:59.316Z,7.59
2022-11-21T00:39:26.845Z,8.04
2022-11-21T00:41:54.050Z,8.02
2022-11-21T00:44:21.313Z,7.99
2022-11-21T00:46:48.808Z,7.89
2022-11-21T00:49:16.030Z,7.92
2022-11-21T00:51:43.242Z,7.98
2022-11-21T00:54:10.742Z,7.73
2022-11-21T00:56:37.975Z,7.59
2022-11-21T00:59:05.143Z,7.39
2022-11-21T01:01:32.700Z,7.46
2022-11-21T01:04:00.016Z,7.63
2022-11-21T01:06:27.236Z,7.77
2022-11-21T01:08:54.739Z,7.58
2022-11-21T01:11:22.030Z,7.54
2022-11-21T01:13:49.284Z,7.65
2022-11-21T01:16:20.742Z,7.42
2022-11-21T01:18:48.165Z,7.28
2022-11-21T01:21:16.357Z,7.34
2022-11-21T01:23:44.102Z,7.31
2022-11-21T01:26:12.084Z,7.35
2022-11-21T01:28:39.289Z,7.14
2022-11-21T01:31:11.176Z,6.95
2022-11-21T01:33:38.716Z,7.49
2022-11-21T01:36:08.299Z,7.62
2022-11-21T01:38:35.776Z,7.59
2022-11-21T01:41:03.154Z,7.56
2022-11-21T01:43:30.350Z,7.15
2022-11-21T01:46:01.905Z,7.39
2022-11-21T01:48:32.067Z,7.34
2022-11-21T01:51:00.615Z,7.39
2022-11-21T01:53:27.831Z,7.52
2022-11-21T01:55:55.033Z,7.51
2022-11-21T01:58:22.578Z,7.39
2022-11-21T02:00:49.903Z,7.53
2022-11-21T02:03:18.405Z,7.51
2022-11-21T02:05:45.857Z,7.49
2022-11-21T02:08:18.205Z,7.34
2022-11-21T02:10:48.064Z,7.49
2022-11-21T02:13:15.266Z,7.36
2022-11-21T02:15:42.444Z,7.38
2022-11-21T02:18:10.047Z,7.38
2022-11-21T02:20:37.231Z,7.40
2022-11-21T02:23:06.424Z,7.35
2022-11-21T02:25:34.359Z,7.38
2022-11-21T02:28:02.218Z,7.49
2022-11-21T02:30:33.597Z,7.51
2022-11-21T02:33:01.104Z,7.36
2022-11-21T02:35:28.335Z,6.94
2022-11-21T02:37:59.688Z,7.20
2022-11-21T02:40:28.305Z,7.29
2022-11-21T02:42:55.478Z,7.05
2022-11-21T02:45:24.007Z,7.12
2022-11-21T02:47:52.770Z,7.28
2022-11-21T02:50:20.640Z,7.23
2022-11-21T02:52:47.857Z,7.38
2022-11-21T02:55:16.034Z,7.34
2022-11-21T02:57:43.382Z,7.47
2022-11-21T03:00:11.271Z,7.45
2022-11-21T03:02:38.789Z,7.54
2022-11-21T03:05:08.328Z,7.43
2022-11-21T03:07:35.639Z,7.28
2022-11-21T03:10:03.571Z,7.44
2022-11-21T03:12:30.745Z,7.35
2022-11-21T03:14:57.936Z,7.35
2022-11-21T03:17:25.363Z,7.12
2022-11-21T03:19:52.548Z,7.10
2022-11-21T03:22:19.751Z,7.19
2022-11-21T03:24:47.157Z,7.23
2022-11-21T03:27:14.359Z,7.30
2022-11-21T03:29:41.586Z,7.24
2022-11-21T03:32:09.045Z,7.24
2022-11-21T03:34:36.377Z,7.35
2022-11-21T03:37:03.611Z,7.35
2022-11-21T03:39:31.087Z,7.36
2022-11-21T03:41:58.256Z,7.34
2022-11-21T03:44:25.975Z,7.13
2022-11-21T03:46:53.739Z,7.20
2022-11-21T03:49:20.943Z,7.32
2022-11-21T03:51:48.104Z,7.35
2022-11-21T03:54:15.572Z,7.29
2022-11-21T03:56:42.810Z,7.02
2022-11-21T03:59:10.008Z,6.95
2022-11-21T04:01:37.581Z,6.91
2022-11-21T04:04:05.279Z,6.95
2022-11-21T04:06:32.522Z,7.02
2022-11-21T04:08:59.712Z,7.08
2022-11-21T04:11:27.232Z,7.06
2022-11-21T04:13:54.402Z,7.03
2022-11-21T04:16:21.639Z,6.99
2022-11-21T04:18:49.173Z,6.96
2022-11-21T04:21:16.353Z,6.88
2022-11-21T04:23:43.558Z,6.67
2022-11-21T04:26:11.196Z,6.62
2022-11-21T04:28:38.441Z,6.77
2022-11-21T04:31:10.389Z,6.88
2022-11-21T04:33:39.005Z,6.88
2022-11-21T04:36:06.971Z,6.89
2022-11-21T04:38:34.167Z,6.94
2022-11-21T04:41:01.657Z,7.03
2022-11-21T04:43:28.893Z,7.08
2022-11-21T04:45:56.105Z,7.11
2022-11-21T04:48:24.763Z,7.20
2022-11-21T04:50:51.990Z,7.13
2022-11-21T04:53:19.199Z,7.17
2022-11-21T04:55:46.707Z,7.15
2022-11-21T04:58:13.915Z,7.15
2022-11-21T05:00:41.098Z,7.21
2022-11-21T05:03:08.543Z,7.21
2022-11-21T05:05:35.795Z,7.09
2022-11-21T05:08:03.023Z,6.92
2022-11-21T05:10:30.537Z,7.14
2022-11-21T05:13:17.379Z,7.22
2022-11-21T05:15:44.989Z,7.21
2022-11-21T05:18:12.283Z,6.47
2022-11-21T05:20:39.479Z,6.73
2022-11-21T05:23:06.950Z,6.95
2022-11-21T05:25:34.097Z,7.04
2022-11-21T05:28:01.351Z,7.11
2022-11-21T05:30:29.188Z,6.87
2022-11-21T05:32:56.347Z,7.07
2022-11-21T05:35:23.571Z,7.31
2022-11-21T05:37:55.727Z,7.33
2022-11-21T05:40:22.994Z,7.21
2022-11-21T05:43:09.223Z,7.28
2022-11-21T05:45:36.454Z,7.18
2022-11-21T05:48:07.882Z,7.22
2022-11-21T05:50:37.948Z,7.46
2022-11-21T05:53:05.594Z,7.34
2022-11-21T05:55:34.175Z,7.48
2022-11-21T05:58:01.540Z,7.40
2022-11-21T06:00:29.138Z,7.55
2022-11-21T06:03:15.520Z,7.53
2022-11-21T06:05:42.825Z,7.08
2022-11-21T06:08:10.340Z,7.49
2022-11-21T06:10:37.586Z,7.53
2022-11-21T06:13:21.981Z,7.52
2022-11-21T06:15:49.701Z,7.36
2022-11-21T06:18:17.182Z,7.41
2022-11-21T06:20:44.404Z,7.45
2022-11-21T06:23:12.435Z,7.06
2022-11-21T06:25:39.716Z,7.07
2022-11-21T06:28:06.881Z,7.29
2022-11-21T06:30:34.537Z,7.15
2022-11-21T06:33:03.434Z,7.35
2022-11-21T06:35:30.727Z,7.40
2022-11-21T06:37:58.571Z,7.12
2022-11-21T06:40:25.823Z,7.18
2022-11-21T06:42:53.041Z,7.35
2022-11-21T06:45:20.490Z,7.35
2022-11-21T06:47:48.470Z,7.20
2022-11-21T06:50:15.881Z,7.49
2022-11-21T06:52:43.388Z,7.11
2022-11-21T06:55:10.780Z,7.27
2022-11-21T06:57:38.060Z,7.39
2022-11-21T07:00:06.016Z,7.57
2022-11-21T07:02:33.258Z,7.51
2022-11-21T07:05:00.387Z,7.36
2022-11-21T07:07:28.015Z,7.40
2022-11-21T07:09:55.258Z,7.71
2022-11-21T07:12:40.918Z,7.73
2022-11-21T07:15:08.845Z,7.50
2022-11-21T07:17:36.061Z,7.68
2022-11-21T07:20:03.395Z,7.62
2022-11-21T07:22:30.885Z,7.51
2022-11-21T07:24:58.106Z,7.62
2022-11-21T07:27:25.273Z,7.53
2022-11-21T07:29:52.746Z,7.53
2022-11-21T07:32:20.008Z,7.21
2022-11-21T07:34:47.205Z,7.23
2022-11-21T07:37:14.685Z,7.09
2022-11-21T07:39:42.005Z,7.12
2022-11-21T07:42:09.291Z,7.18
2022-11-21T07:44:36.833Z,7.04
2022-11-21T07:47:04.066Z,7.40
2022-11-21T07:49:31.481Z,7.59
2022-11-21T07:51:59.126Z,7.69
2022-11-21T07:54:26.367Z,7.73
2022-11-21T07:56:53.584Z,7.82
2022-11-21T07:59:21.139Z,7.77
2022-11-21T08:01:48.423Z,7.91
2022-11-21T08:04:15.903Z,8.03
2022-11-21T08:06:43.191Z,7.98
2022-11-21T08:09:10.378Z,8.00
2022-11-21T08:11:37.915Z,7.96
2022-11-21T08:14:05.126Z,8.05
2022-11-21T08:16:32.999Z,8.04
2022-11-21T08:19:00.626Z,8.07
2022-11-21T08:21:27.828Z,8.30
2022-11-21T08:23:55.353Z,8.10
2022-11-21T08:26:22.929Z,8.19
2022-11-21T08:28:51.587Z,8.37
2022-11-21T08:31:21.592Z,8.53
2022-11-21T08:33:49.169Z,8.55
2022-11-21T08:36:16.386Z,8.54
2022-11-21T08:38:43.556Z,8.81
2022-11-21T08:41:30.270Z,8.74
2022-11-21T08:43:57.492Z,8.86
2022-11-21T08:46:28.273Z,8.85
2022-11-21T08:48:55.539Z,8.59
2022-11-21T08:51:22.819Z,8.65
2022-11-21T08:53:50.574Z,8.62
2022-11-21T08:56:17.746Z,7.65
2022-11-21T08:58:45.012Z,8.15
2022-11-21T09:01:12.471Z,8.03
2022-11-21T09:03:39.767Z,8.03
2022-11-21T09:06:07.098Z,7.90
2022-11-21T09:08:35.491Z,8.03
2022-11-21T09:11:06.405Z,8.22
2022-11-21T09:13:33.906Z,7.68
2022-11-21T09:16:20.853Z,8.01
2022-11-21T09:18:48.390Z,7.93
2022-11-21T09:21:16.143Z,8.35
2022-11-21T09:23:43.376Z,7.73
2022-11-21T09:26:10.627Z,7.79
2022-11-21T09:28:38.130Z,7.39
2022-11-21T09:31:05.553Z,7.82
2022-11-21T09:33:32.945Z,7.89
2022-11-21T09:36:00.638Z,7.75
2022-11-21T09:38:28.985Z,7.28
2022-11-21T09:41:22.255Z,7.40
2022-11-21T09:44:00.872Z,7.08
2022-11-21T09:46:28.694Z,7.22
2022-11-21T09:49:00.672Z,6.85
2022-11-21T09:51:27.950Z,6.98
2022-11-21T09:54:28.608Z,6.97
2022-11-21T09:56:55.988Z,6.74
2022-11-21T09:59:33.819Z,6.78
2022-11-21T10:02:01.204Z,6.80
2022-11-21T10:04:29.138Z,7.36
2022-11-21T10:06:56.532Z,6.99
2022-11-21T10:09:26.717Z,7.14
2022-11-21T10:12:16.024Z,7.60
2022-11-21T10:15:01.831Z,7.73
2022-11-21T10:17:32.055Z,7.92
2022-11-21T10:20:08.526Z,8.30
2022-11-21T10:22:46.894Z,7.86
2022-11-21T10:25:26.850Z,8.23
2022-11-21T10:28:07.323Z,8.46
2022-11-21T10:30:35.020Z,8.38
2022-11-21T10:33:03.592Z,8.58
2022-11-21T10:35:35.956Z,8.83
2022-11-21T10:38:06.049Z,8.61
2022-11-21T10:40:44.435Z,8.62
2022-11-21T10:43:33.729Z,8.63
2022-11-21T10:46:00.920Z,8.86
2022-11-21T10:48:28.377Z,9.16
2022-11-21T10:51:06.240Z,9.32
2022-11-21T10:53:52.523Z,9.43
2022-11-21T10:56:20.634Z,9.58
2022-11-21T10:58:52.074Z,9.59
2022-11-21T11:01:28.339Z,9.67
2022-11-21T11:04:39.158Z,9.65
2022-11-21T11:07:34.243Z,9.52
2022-11-21T11:10:34.351Z,9.59
2022-11-21T11:16:10.852Z,9.82
2022-11-21T11:18:39.488Z,9.86
2022-11-21T11:21:11.825Z,9.98
2022-11-21T11:23:39.431Z,9.97
2022-11-21T11:26:18.173Z,9.99
2022-11-21T11:28:45.626Z,10.10
2022-11-21T11:31:12.871Z,10.13
2022-11-21T11:33:41.170Z,10.31
2022-11-21T11:36:11.451Z,10.29
2022-11-21T11:38:38.699Z,10.35
2022-11-21T11:41:09.155Z,10.42
2022-11-21T11:43:55.488Z,10.34
2022-11-21T11:46:59.731Z,10.49
2022-11-21T11:49:58.288Z,10.52
2022-11-21T11:52:26.076Z,10.56
2022-11-21T11:54:56.127Z,10.64
2022-11-21T11:57:23.363Z,10.68
2022-11-21T11:59:51.728Z,10.62
2022-11-21T12:02:23.937Z,10.81
2022-11-21T12:04:55.750Z,10.68
2022-11-21T12:08:20.412Z,11.07
2022-11-21T12:10:17.240Z,11.10
2022-11-21T12:12:59.492Z,11.19
2022-11-21T12:15:52.668Z,11.26
2022-11-21T12:18:19.925Z,11.22
2022-11-21T12:20:50.233Z,11.06
2022-11-21T12:23:18.136Z,11.12
2022-11-21T12:25:59.200Z,10.90
2022-11-21T12:28:28.462Z,10.85
2022-11-21T12:30:57.650Z,9.97
2022-11-21T12:33:24.912Z,9.69
2022-11-21T12:36:19.008Z,9.79
2022-11-21T12:38:47.013Z,10.22
2022-11-21T12:41:36.393Z,10.31
2022-11-21T12:44:22.511Z,10.56
2022-11-21T12:47:10.267Z,10.48
2022-11-21T12:50:02.009Z,9.68
2022-11-21T12:52:52.326Z,9.71
2022-11-21T12:55:36.316Z,10.17
2022-11-21T12:58:05.408Z,10.18
2022-11-21T13:00:32.577Z,10.00
2022-11-21T13:03:18.802Z,9.60
2022-11-21T13:05:47.190Z,9.89
2022-11-21T13:08:25.361Z,9.16
2022-11-21T13:11:15.891Z,8.46
2022-11-21T13:13:43.223Z,8.79
2022-11-21T13:16:11.624Z,7.99
2022-11-21T13:18:42.670Z,8.95
2022-11-21T13:21:28.700Z,9.76
2022-11-21T13:23:56.165Z,10.02
2022-11-21T13:26:26.374Z,10.21
2022-11-21T13:29:10.113Z,10.89
2022-11-21T13:31:37.690Z,10.94
2022-11-21T13:34:05.348Z,11.15
2022-11-21T13:36:32.596Z,10.40
2022-11-21T13:39:00.222Z,9.75
2022-11-21T13:41:55.446Z,10.00
2022-11-21T13:44:32.264Z,10.84
2022-11-21T13:47:12.443Z,10.47
2022-11-21T13:49:49.177Z,10.07
2022-11-21T13:52:19.755Z,10.63
2022-11-21T13:55:01.267Z,11.02
2022-11-21T13:57:28.596Z,10.98
2022-11-21T14:00:19.706Z,11.20
2022-11-21T14:02:48.179Z,11.32
2022-11-21T14:05:15.484Z,11.21
2022-11-21T14:07:42.955Z,11.37
2022-11-21T14:10:18.413Z,11.23
2022-11-21T14:12:47.380Z,11.38
2022-11-21T14:15:35.143Z,11.64
2022-11-21T14:18:02.386Z,11.69
2022-11-21T14:20:29.852Z,11.96
2022-11-21T14:22:57.177Z,11.82
2022-11-21T14:25:44.619Z,11.73
2022-11-21T14:28:13.186Z,11.86
2022-11-21T14:30:41.242Z,11.82
2022-11-21T14:33:20.642Z,11.92
2022-11-21T14:36:08.444Z,11.75
2022-11-21T14:38:40.221Z,11.62
2022-11-21T14:41:25.922Z,11.76
2022-11-21T14:43:59.276Z,11.75
2022-11-21T14:46:27.879Z,11.78
2022-11-21T14:48:57.330Z,12.13
2022-11-21T14:51:24.744Z,12.00
2022-11-21T14:53:53.597Z,11.73
2022-11-21T14:56:25.002Z,11.90
2022-11-21T14:58:53.071Z,12.04
2022-11-21T15:01:20.285Z,11.89
2022-11-21T15:04:17.132Z,11.99
2022-11-21T15:06:44.795Z,12.16
2022-11-21T15:10:25.491Z,12.14
2022-11-21T15:12:03.899Z,11.95
2022-11-21T15:14:35.902Z,12.03
2022-11-21T15:17:04.206Z,12.06
2022-11-21T15:19:32.652Z,12.12
2022-11-21T15:22:01.328Z,12.15
2022-11-21T15:24:37.583Z,12.25
2022-11-21T15:27:43.431Z,12.25
2022-11-21T15:30:10.925Z,12.21
2022-11-21T15:32:56.711Z,12.29
2022-11-21T15:35:47.651Z,12.18
2022-11-21T15:38:15.892Z,11.88
2022-11-21T15:40:55.424Z,12.18
2022-11-21T15:43:32.812Z,12.30
2022-11-21T15:46:01.498Z,12.37
2022-11-21T15:48:28.796Z,12.47
2022-11-21T15:50:58.966Z,12.65
2022-11-21T15:53:26.750Z,12.61
2022-11-21T15:55:54.005Z,12.64
2022-11-21T15:58:21.232Z,12.57
2022-11-21T16:00:49.395Z,12.66
2022-11-21T16:03:16.925Z,12.48
2022-11-21T16:05:44.153Z,11.82
2022-11-21T16:08:11.494Z,12.20
2022-11-21T16:10:39.193Z,12.12
2022-11-21T16:13:06.622Z,12.32
2022-11-21T16:15:34.435Z,12.37
2022-11-21T16:18:01.929Z,12.56
2022-11-21T16:20:29.237Z,12.43
2022-11-21T16:22:56.435Z,12.11
2022-11-21T16:25:23.922Z,12.40
2022-11-21T16:27:51.260Z,12.58
2022-11-21T16:30:19.320Z,12.84
2022-11-21T16:32:47.095Z,12.83
2022-11-21T16:35:14.530Z,12.73
2022-11-21T16:37:41.968Z,12.82
2022-11-21T16:40:09.762Z,12.88
2022-11-21T16:42:36.996Z,12.81
2022-11-21T16:45:04.461Z,12.76
2022-11-21T16:47:32.054Z,12.60
2022-11-21T16:50:00.391Z,12.80
2022-11-21T16:52:27.637Z,12.80
2022-11-21T16:54:55.265Z,12.67
2022-11-21T16:57:22.538Z,12.66
2022-11-21T16:59:50.101Z,12.67
2022-11-21T17:02:17.753Z,12.67
2022-11-21T17:04:45.040Z,12.64
2022-11-21T17:07:12.339Z,12.48
2022-11-21T17:09:39.905Z,12.00
2022-11-21T17:12:07.220Z,12.19
2022-11-21T17:14:34.539Z,11.75
2022-11-21T17:17:02.092Z,12.00
2022-11-21T17:19:29.604Z,12.15
2022-11-21T17:21:56.931Z,12.19
2022-11-21T17:24:25.264Z,12.25
2022-11-21T17:26:52.521Z,11.84
2022-11-21T17:29:19.893Z,11.85
2022-11-21T17:31:49.508Z,11.96
2022-11-21T17:34:16.735Z,12.13
2022-11-21T17:36:44.091Z,12.10
2022-11-21T17:39:12.840Z,12.19
2022-11-21T17:41:40.312Z,12.23
2022-11-21T17:44:07.513Z,12.12
2022-11-21T17:46:35.013Z,11.66
2022-11-21T17:49:02.354Z,11.81
2022-11-21T17:51:32.276Z,12.18
2022-11-21T17:54:00.846Z,12.24
2022-11-21T17:56:29.085Z,12.20
2022-11-21T17:58:56.494Z,12.04
2022-11-21T18:01:24.459Z,12.15
2022-11-21T18:03:56.641Z,12.26
2022-11-21T18:06:24.099Z,12.31
2022-11-21T18:08:51.845Z,12.22
2022-11-21T18:11:19.845Z,12.44
2022-11-21T18:13:48.077Z,12.41
2022-11-21T18:16:17.579Z,12.34
2022-11-21T18:18:45.434Z,12.25
2022-11-21T18:21:13.921Z,12.18
2022-11-21T18:23:41.594Z,12.22
2022-11-21T18:26:12.641Z,12.30
2022-11-21T18:28:40.222Z,12.26
2022-11-21T18:31:08.851Z,12.11
2022-11-21T18:33:36.454Z,12.05
2022-11-21T18:36:04.226Z,12.13
2022-11-21T18:38:48.231Z,12.03
2022-11-21T18:41:17.911Z,12.16
2022-11-21T18:43:49.125Z,12.07
2022-11-21T18:46:16.626Z,11.45
2022-11-21T18:49:02.157Z,11.88
2022-11-21T18:51:32.300Z,12.16
2022-11-21T18:54:05.353Z,12.10
2022-11-21T18:56:33.294Z,12.03
2022-11-21T18:59:00.829Z,12.13
2022-11-21T19:01:28.930Z,12.23
2022-11-21T19:03:57.322Z,11.69
2022-11-21T19:06:24.965Z,12.15
2022-11-21T19:08:55.678Z,12.09
2022-11-21T19:11:24.614Z,11.98
2022-11-21T19:13:52.696Z,11.99
2022-11-21T19:16:20.894Z,12.15
2022-11-21T19:19:11.513Z,12.12
2022-11-21T19:21:37.817Z,12.14
2022-11-21T19:24:06.947Z,12.17
2022-11-21T19:26:34.398Z,12.11
2022-11-21T19:29:01.822Z,12.07
2022-11-21T19:31:29.581Z,11.98
2022-11-21T19:33:57.836Z,12.09
2022-11-21T19:36:25.371Z,12.17
2022-11-21T19:38:52.931Z,12.08
2022-11-21T19:41:21.338Z,11.88
2022-11-21T19:43:49.417Z,11.89
2022-11-21T19:46:21.234Z,12.04
2022-11-21T19:48:48.952Z,11.97
2022-11-21T19:51:17.642Z,11.69
2022-11-21T19:53:45.508Z,11.45
2022-11-21T19:56:17.578Z,11.39
2022-11-21T19:58:45.688Z,11.71
2022-11-21T20:01:17.113Z,11.58
2022-11-21T20:03:45.418Z,11.54
2022-11-21T20:06:16.823Z,11.45
2022-11-21T20:08:44.500Z,11.39
2022-11-21T20:11:12.698Z,11.09
2022-11-21T20:13:40.668Z,11.06
2022-11-21T20:16:10.177Z,11.38
2022-11-21T20:18:37.652Z,11.14
2022-11-21T20:21:11.146Z,11.38
2022-11-21T20:23:39.102Z,11.11
2022-11-21T20:26:06.985Z,11.31
2022-11-21T20:28:36.228Z,11.14
2022-11-21T20:31:04.800Z,11.15
2022-11-21T20:36:21.839Z,10.99
2022-11-21T20:38:52.518Z,10.94
2022-11-21T20:41:20.057Z,10.88
2022-11-21T20:46:35.206Z,10.84
2022-11-21T20:49:02.798Z,10.74
2022-11-21T20:54:17.847Z,10.41
2022-11-21T20:56:45.175Z,10.51
2022-11-21T20:59:12.757Z,10.61
2022-11-21T21:01:40.416Z,10.63
2022-11-21T21:04:09.365Z,10.61
2022-11-21T21:06:37.720Z,10.57
2022-11-21T21:09:05.287Z,10.38
2022-11-21T21:14:21.189Z,10.51
2022-11-21T21:16:48.605Z,10.47
2022-11-21T21:19:16.292Z,10.42
2022-11-21T21:21:43.890Z,10.38
2022-11-21T21:24:11.486Z,10.24
2022-11-21T21:26:42.706Z,10.00
2022-11-21T21:29:11.842Z,10.26
2022-11-21T21:31:39.161Z,10.18
2022-11-21T21:34:06.467Z,9.97
2022-11-21T21:36:34.153Z,10.23
2022-11-21T21:39:01.618Z,10.14
2022-11-21T21:41:29.738Z,10.17
2022-11-21T21:43:57.771Z,10.17
2022-11-21T21:46:26.002Z,10.05
2022-11-21T21:48:57.247Z,10.10
2022-11-21T21:51:25.779Z,10.23
2022-11-21T21:53:53.477Z,10.15
2022-11-21T21:56:21.042Z,9.92
2022-11-21T21:58:48.920Z,9.85
2022-11-21T22:01:17.446Z,10.03
2022-11-21T22:03:45.348Z,10.01
2022-11-21T22:06:13.778Z,10.02
2022-11-21T22:08:41.156Z,10.02
2022-11-21T22:11:09.637Z,9.88
2022-11-21T22:13:37.122Z,9.86
2022-11-21T22:16:05.062Z,9.67
2022-11-21T22:18:32.829Z,9.85
2022-11-21T22:21:00.177Z,9.84
2022-11-21T22:23:27.498Z,9.79
2022-11-21T22:25:55.755Z,9.81
2022-11-21T22:28:23.467Z,9.84
2022-11-21T22:30:54.578Z,9.80
2022-11-21T22:33:22.410Z,9.82
2022-11-21T22:35:49.846Z,9.62
2022-11-21T22:38:17.172Z,9.90
2022-11-21T22:40:44.852Z,9.53
2022-11-21T22:43:12.382Z,9.86
2022-11-21T22:45:39.665Z,9.32
2022-11-21T22:48:07.364Z,9.43
2022-11-21T22:50:34.655Z,9.53
2022-11-21T22:53:01.861Z,9.45
2022-11-21T22:55:29.301Z,9.65
2022-11-21T22:57:57.343Z,9.68
2022-11-21T23:00:24.502Z,8.96
2022-11-21T23:02:52.054Z,9.37
2022-11-21T23:05:20.079Z,9.00
2022-11-21T23:07:47.391Z,9.16
2022-11-21T23:10:14.925Z,9.27
2022-11-21T23:12:42.139Z,8.75
2022-11-21T23:15:09.599Z,9.12
2022-11-21T23:17:37.433Z,9.23
2022-11-21T23:20:04.803Z,9.05
2022-11-21T23:22:32.007Z,8.61
2022-11-21T23:24:59.561Z,9.05
2022-11-21T23:27:26.820Z,8.72
2022-11-21T23:29:54.064Z,8.91
2022-11-21T23:32:21.643Z,9.01
2022-11-21T23:34:48.818Z,8.72
2022-11-21T23:37:16.065Z,8.82
2022-11-21T23:39:43.523Z,8.97
2022-11-21T23:42:10.776Z,9.07
2022-11-21T23:44:38.003Z,9.13
2022-11-21T23:47:05.525Z,9.23
2022-11-21T23:49:32.871Z,9.06
2022-11-21T23:52:00.119Z,8.81
2022-11-21T23:54:27.665Z,9.16
2022-11-21T23:56:54.885Z,8.97
2022-11-21T23:59:22.107Z,9.02
